sensor_id;sensor_type;location;lat;lon;timestamp;P1;durP1;ratioP1;P2;durP2;ratioP2
3817;SDS011;1924;48.078;11.516;2023-03-05T00:24:45;22.30;;;0.80;;
3817;SDS011;1924;48.078;11.516;2023-03-05T00:27:15;22.50;;;0.77;;
3817;SDS011;1924;48.078;11.516;2023-03-05T00:29:41;22.40;;;0.70;;
3817;SDS011;1924;48.078;11.516;2023-03-05T00:48:13;22.43;;;0.80;;
3817;SDS011;1924;48.078;11.516;2023-03-05T01:27:29;22.33;;;0.70;;
3817;SDS011;1924;48.078;11.516;2023-03-05T01:29:56;22.30;;;0.80;;
3817;SDS011;1924;48.078;11.516;2023-03-05T05:25:22;22.10;;;0.70;;
3817;SDS011;1924;48.078;11.516;2023-03-05T05:43:23;22.20;;;0.80;;
3817;SDS011;1924;48.078;11.516;2023-03-05T06:32:28;22.27;;;0.70;;
3817;SDS011;1924;48.078;11.516;2023-03-05T06:34:54;22.40;;;0.70;;
3817;SDS011;1924;48.078;11.516;2023-03-05T06:37:21;22.37;;;0.70;;
3817;SDS011;1924;48.078;11.516;2023-03-05T07:03:35;22.27;;;0.70;;
3817;SDS011;1924;48.078;11.516;2023-03-05T07:11:14;22.40;;;0.70;;
3817;SDS011;1924;48.078;11.516;2023-03-05T07:13:42;22.30;;;0.70;;
3817;SDS011;1924;48.078;11.516;2023-03-05T07:16:12;22.30;;;0.70;;
3817;SDS011;1924;48.078;11.516;2023-03-05T07:18:42;22.47;;;0.70;;
3817;SDS011;1924;48.078;11.516;2023-03-05T07:21:09;22.20;;;0.80;;
3817;SDS011;1924;48.078;11.516;2023-03-05T07:23:40;22.40;;;0.70;;
3817;SDS011;1924;48.078;11.516;2023-03-05T07:26:07;22.20;;;0.70;;
3817;SDS011;1924;48.078;11.516;2023-03-05T07:28:34;22.40;;;0.80;;
3817;SDS011;1924;48.078;11.516;2023-03-05T07:31:01;22.47;;;0.70;;
3817;SDS011;1924;48.078;11.516;2023-03-05T07:33:29;22.60;;;0.70;;
3817;SDS011;1924;48.078;11.516;2023-03-05T07:35:58;22.43;;;0.70;;
3817;SDS011;1924;48.078;11.516;2023-03-05T07:38:28;22.50;;;0.80;;
3817;SDS011;1924;48.078;11.516;2023-03-05T07:40:55;22.67;;;0.70;;
3817;SDS011;1924;48.078;11.516;2023-03-05T07:43:21;22.60;;;0.70;;
3817;SDS011;1924;48.078;11.516;2023-03-05T07:45:48;22.60;;;0.80;;
3817;SDS011;1924;48.078;11.516;2023-03-05T07:48:16;22.77;;;0.77;;
3817;SDS011;1924;48.078;11.516;2023-03-05T07:50:44;22.77;;;0.80;;
3817;SDS011;1924;48.078;11.516;2023-03-05T07:53:13;22.60;;;0.70;;
3817;SDS011;1924;48.078;11.516;2023-03-05T07:55:43;22.70;;;0.80;;
3817;SDS011;1924;48.078;11.516;2023-03-05T07:58:10;22.60;;;0.70;;
3817;SDS011;1924;48.078;11.516;2023-03-05T08:00:38;22.60;;;0.70;;
3817;SDS011;1924;48.078;11.516;2023-03-05T08:03:06;22.87;;;0.80;;
3817;SDS011;1924;48.078;11.516;2023-03-05T08:05:33;22.60;;;0.77;;
3817;SDS011;1924;48.078;11.516;2023-03-05T08:07:59;22.70;;;0.70;;
3817;SDS011;1924;48.078;11.516;2023-03-05T08:10:27;22.67;;;0.70;;
3817;SDS011;1924;48.078;11.516;2023-03-05T08:12:54;22.80;;;0.70;;
3817;SDS011;1924;48.078;11.516;2023-03-05T08:15:21;22.70;;;0.80;;
3817;SDS011;1924;48.078;11.516;2023-03-05T08:17:47;22.80;;;0.73;;
3817;SDS011;1924;48.078;11.516;2023-03-05T08:20:14;22.60;;;0.70;;
3817;SDS011;1924;48.078;11.516;2023-03-05T08:22:43;22.60;;;0.70;;
3817;SDS011;1924;48.078;11.516;2023-03-05T08:25:10;22.70;;;0.70;;
3817;SDS011;1924;48.078;11.516;2023-03-05T08:27:39;22.60;;;0.80;;
3817;SDS011;1924;48.078;11.516;2023-03-05T08:30:09;22.60;;;0.80;;
3817;SDS011;1924;48.078;11.516;2023-03-05T08:32:38;22.60;;;0.70;;
3817;SDS011;1924;48.078;11.516;2023-03-05T08:35:05;22.67;;;0.70;;
3817;SDS011;1924;48.078;11.516;2023-03-05T08:37:34;22.60;;;0.70;;
3817;SDS011;1924;48.078;11.516;2023-03-05T08:40:01;22.70;;;0.80;;
3817;SDS011;1924;48.078;11.516;2023-03-05T08:42:28;22.70;;;0.70;;
3817;SDS011;1924;48.078;11.516;2023-03-05T08:44:57;22.60;;;0.70;;
3817;SDS011;1924;48.078;11.516;2023-03-05T08:47:23;22.70;;;0.70;;
3817;SDS011;1924;48.078;11.516;2023-03-05T08:49:51;22.50;;;0.70;;
3817;SDS011;1924;48.078;11.516;2023-03-05T08:52:19;22.70;;;0.70;;
3817;SDS011;1924;48.078;11.516;2023-03-05T08:54:46;22.73;;;0.70;;
3817;SDS011;1924;48.078;11.516;2023-03-05T08:57:13;22.70;;;0.70;;
3817;SDS011;1924;48.078;11.516;2023-03-05T08:59:39;22.60;;;0.70;;
3817;SDS011;1924;48.078;11.516;2023-03-05T09:02:09;22.70;;;0.70;;
3817;SDS011;1924;48.078;11.516;2023-03-05T09:04:37;22.90;;;0.80;;
3817;SDS011;1924;48.078;11.516;2023-03-05T09:07:04;22.73;;;0.70;;
3817;SDS011;1924;48.078;11.516;2023-03-05T09:09:32;22.80;;;0.70;;
3817;SDS011;1924;48.078;11.516;2023-03-05T09:11:59;22.97;;;0.70;;
3817;SDS011;1924;48.078;11.516;2023-03-05T09:14:26;22.90;;;0.70;;
3817;SDS011;1924;48.078;11.516;2023-03-05T09:16:53;22.90;;;0.70;;
3817;SDS011;1924;48.078;11.516;2023-03-05T09:19:21;23.10;;;0.70;;
3817;SDS011;1924;48.078;11.516;2023-03-05T09:24:30;23.10;;;0.70;;
3817;SDS011;1924;48.078;11.516;2023-03-05T09:26:57;23.13;;;0.70;;
3817;SDS011;1924;48.078;11.516;2023-03-05T09:29:24;23.00;;;0.70;;
3817;SDS011;1924;48.078;11.516;2023-03-05T09:31:51;23.00;;;0.70;;
3817;SDS011;1924;48.078;11.516;2023-03-05T09:34:18;23.07;;;0.70;;
3817;SDS011;1924;48.078;11.516;2023-03-05T09:36:46;23.07;;;0.70;;
3817;SDS011;1924;48.078;11.516;2023-03-05T09:39:13;23.00;;;0.80;;
3817;SDS011;1924;48.078;11.516;2023-03-05T09:41:50;23.00;;;0.70;;
3817;SDS011;1924;48.078;11.516;2023-03-05T09:44:34;22.90;;;0.70;;
3817;SDS011;1924;48.078;11.516;2023-03-05T09:47:08;23.07;;;0.80;;
3817;SDS011;1924;48.078;11.516;2023-03-05T09:49:49;22.90;;;0.70;;
3817;SDS011;1924;48.078;11.516;2023-03-05T09:52:25;23.00;;;0.80;;
3817;SDS011;1924;48.078;11.516;2023-03-05T09:54:59;23.00;;;0.70;;
3817;SDS011;1924;48.078;11.516;2023-03-05T09:57:31;22.80;;;0.70;;
3817;SDS011;1924;48.078;11.516;2023-03-05T10:00:05;22.80;;;0.70;;
3817;SDS011;1924;48.078;11.516;2023-03-05T10:02:43;23.00;;;0.73;;
3817;SDS011;1924;48.078;11.516;2023-03-05T10:05:18;22.70;;;0.70;;
3817;SDS011;1924;48.078;11.516;2023-03-05T10:10:19;23.00;;;0.70;;
3817;SDS011;1924;48.078;11.516;2023-03-05T10:15:28;23.10;;;0.70;;
3817;SDS011;1924;48.078;11.516;2023-03-05T10:20:53;22.90;;;0.70;;
3817;SDS011;1924;48.078;11.516;2023-03-05T10:23:24;23.10;;;0.70;;
3817;SDS011;1924;48.078;11.516;2023-03-05T10:26:14;23.00;;;0.70;;
3817;SDS011;1924;48.078;11.516;2023-03-05T10:28:48;23.13;;;0.70;;
3817;SDS011;1924;48.078;11.516;2023-03-05T10:31:40;23.20;;;0.70;;
3817;SDS011;1924;48.078;11.516;2023-03-05T10:34:24;23.17;;;0.70;;
3817;SDS011;1924;48.078;11.516;2023-03-05T10:37:22;23.13;;;0.80;;
3817;SDS011;1924;48.078;11.516;2023-03-05T10:40:12;23.20;;;0.70;;
3817;SDS011;1924;48.078;11.516;2023-03-05T10:42:51;23.10;;;0.77;;
3817;SDS011;1924;48.078;11.516;2023-03-05T10:45:25;23.20;;;0.80;;
3817;SDS011;1924;48.078;11.516;2023-03-05T10:47:54;23.10;;;0.73;;
3817;SDS011;1924;48.078;11.516;2023-03-05T10:50:30;23.20;;;0.70;;
3817;SDS011;1924;48.078;11.516;2023-03-05T10:53:06;23.20;;;0.70;;
3817;SDS011;1924;48.078;11.516;2023-03-05T10:58:17;23.20;;;0.70;;
3817;SDS011;1924;48.078;11.516;2023-03-05T11:00:56;23.20;;;0.70;;
3817;SDS011;1924;48.078;11.516;2023-03-05T11:03:24;23.30;;;0.73;;
3817;SDS011;1924;48.078;11.516;2023-03-05T11:05:54;23.43;;;0.80;;
3817;SDS011;1924;48.078;11.516;2023-03-05T11:08:29;23.43;;;0.73;;
3817;SDS011;1924;48.078;11.516;2023-03-05T11:11:04;23.40;;;0.80;;
3817;SDS011;1924;48.078;11.516;2023-03-05T11:16:19;23.60;;;0.80;;
3817;SDS011;1924;48.078;11.516;2023-03-05T11:18:48;23.53;;;0.77;;
3817;SDS011;1924;48.078;11.516;2023-03-05T11:21:19;23.60;;;0.80;;
3817;SDS011;1924;48.078;11.516;2023-03-05T11:24:05;23.67;;;0.80;;
3817;SDS011;1924;48.078;11.516;2023-03-05T11:29:27;23.50;;;0.80;;
3817;SDS011;1924;48.078;11.516;2023-03-05T11:32:02;23.60;;;0.80;;
3817;SDS011;1924;48.078;11.516;2023-03-05T11:39:46;23.80;;;0.80;;
3817;SDS011;1924;48.078;11.516;2023-03-05T11:42:15;23.70;;;0.70;;
3817;SDS011;1924;48.078;11.516;2023-03-05T11:44:49;23.60;;;0.70;;
3817;SDS011;1924;48.078;11.516;2023-03-05T11:47:24;23.60;;;0.77;;
3817;SDS011;1924;48.078;11.516;2023-03-05T11:52:29;23.70;;;0.80;;
3817;SDS011;1924;48.078;11.516;2023-03-05T11:55:07;23.70;;;0.80;;
3817;SDS011;1924;48.078;11.516;2023-03-05T11:57:40;23.80;;;0.70;;
3817;SDS011;1924;48.078;11.516;2023-03-05T12:00:12;23.90;;;0.70;;
3817;SDS011;1924;48.078;11.516;2023-03-05T12:02:43;24.10;;;0.80;;
3817;SDS011;1924;48.078;11.516;2023-03-05T12:10:24;24.10;;;0.80;;
3817;SDS011;1924;48.078;11.516;2023-03-05T12:12:55;24.27;;;0.80;;
3817;SDS011;1924;48.078;11.516;2023-03-05T12:15:42;24.20;;;0.70;;
3817;SDS011;1924;48.078;11.516;2023-03-05T12:21:06;24.20;;;0.80;;
3817;SDS011;1924;48.078;11.516;2023-03-05T12:28:53;24.20;;;0.73;;
3817;SDS011;1924;48.078;11.516;2023-03-05T12:31:26;24.10;;;0.70;;
3817;SDS011;1924;48.078;11.516;2023-03-05T12:37:03;24.00;;;0.80;;
3817;SDS011;1924;48.078;11.516;2023-03-05T12:39:46;24.07;;;0.73;;
3817;SDS011;1924;48.078;11.516;2023-03-05T12:45:27;23.97;;;0.70;;
3817;SDS011;1924;48.078;11.516;2023-03-05T12:51:03;23.80;;;0.80;;
3817;SDS011;1924;48.078;11.516;2023-03-05T12:53:31;24.00;;;0.70;;
3817;SDS011;1924;48.078;11.516;2023-03-05T12:56:00;24.00;;;0.73;;
3817;SDS011;1924;48.078;11.516;2023-03-05T12:58:36;24.07;;;0.70;;
3817;SDS011;1924;48.078;11.516;2023-03-05T13:01:11;24.00;;;0.70;;
3817;SDS011;1924;48.078;11.516;2023-03-05T13:03:49;24.10;;;0.70;;
3817;SDS011;1924;48.078;11.516;2023-03-05T13:06:25;24.10;;;0.80;;
3817;SDS011;1924;48.078;11.516;2023-03-05T13:11:20;24.27;;;0.80;;
3817;SDS011;1924;48.078;11.516;2023-03-05T13:13:50;24.10;;;0.80;;
3817;SDS011;1924;48.078;11.516;2023-03-05T13:16:19;24.17;;;0.80;;
3817;SDS011;1924;48.078;11.516;2023-03-05T13:18:49;24.20;;;0.70;;
3817;SDS011;1924;48.078;11.516;2023-03-05T13:21:17;24.10;;;0.80;;
3817;SDS011;1924;48.078;11.516;2023-03-05T13:23:46;24.10;;;0.70;;
3817;SDS011;1924;48.078;11.516;2023-03-05T13:26:15;24.00;;;0.70;;
3817;SDS011;1924;48.078;11.516;2023-03-05T13:28:45;24.00;;;0.70;;
3817;SDS011;1924;48.078;11.516;2023-03-05T13:31:30;24.00;;;0.80;;
3817;SDS011;1924;48.078;11.516;2023-03-05T13:36:37;24.07;;;0.70;;
3817;SDS011;1924;48.078;11.516;2023-03-05T13:39:05;24.03;;;0.70;;
3817;SDS011;1924;48.078;11.516;2023-03-05T13:44:01;23.90;;;0.70;;
3817;SDS011;1924;48.078;11.516;2023-03-05T13:51:40;23.90;;;0.77;;
3817;SDS011;1924;48.078;11.516;2023-03-05T13:54:14;23.97;;;0.70;;
3817;SDS011;1924;48.078;11.516;2023-03-05T13:56:52;24.00;;;0.77;;
3817;SDS011;1924;48.078;11.516;2023-03-05T13:59:22;24.00;;;0.70;;
3817;SDS011;1924;48.078;11.516;2023-03-05T14:01:52;24.00;;;0.70;;
3817;SDS011;1924;48.078;11.516;2023-03-05T14:06:59;24.10;;;0.80;;
3817;SDS011;1924;48.078;11.516;2023-03-05T14:09:30;24.00;;;0.70;;
3817;SDS011;1924;48.078;11.516;2023-03-05T14:12:20;24.10;;;0.73;;
3817;SDS011;1924;48.078;11.516;2023-03-05T14:17:22;24.00;;;0.70;;
3817;SDS011;1924;48.078;11.516;2023-03-05T14:20:05;23.90;;;0.70;;
3817;SDS011;1924;48.078;11.516;2023-03-05T14:22:34;24.00;;;0.70;;
3817;SDS011;1924;48.078;11.516;2023-03-05T14:25:03;24.00;;;0.80;;
3817;SDS011;1924;48.078;11.516;2023-03-05T14:27:32;23.90;;;0.70;;
3817;SDS011;1924;48.078;11.516;2023-03-05T14:30:00;24.00;;;0.80;;
3817;SDS011;1924;48.078;11.516;2023-03-05T14:32:29;24.00;;;0.73;;
3817;SDS011;1924;48.078;11.516;2023-03-05T14:34:58;24.00;;;0.80;;
3817;SDS011;1924;48.078;11.516;2023-03-05T14:37:28;23.90;;;0.70;;
3817;SDS011;1924;48.078;11.516;2023-03-05T14:39:59;23.97;;;0.70;;
3817;SDS011;1924;48.078;11.516;2023-03-05T14:42:31;23.90;;;0.80;;
3817;SDS011;1924;48.078;11.516;2023-03-05T14:45:00;23.80;;;0.70;;
3817;SDS011;1924;48.078;11.516;2023-03-05T14:47:36;23.80;;;0.80;;
3817;SDS011;1924;48.078;11.516;2023-03-05T14:50:03;23.70;;;0.70;;
3817;SDS011;1924;48.078;11.516;2023-03-05T14:52:31;23.80;;;0.77;;
3817;SDS011;1924;48.078;11.516;2023-03-05T14:54:58;23.70;;;0.70;;
3817;SDS011;1924;48.078;11.516;2023-03-05T14:57:25;23.70;;;0.70;;
3817;SDS011;1924;48.078;11.516;2023-03-05T14:59:56;23.90;;;0.80;;
3817;SDS011;1924;48.078;11.516;2023-03-05T15:02:23;23.80;;;0.80;;
3817;SDS011;1924;48.078;11.516;2023-03-05T15:04:55;23.90;;;0.70;;
3817;SDS011;1924;48.078;11.516;2023-03-05T15:07:24;23.80;;;0.80;;
3817;SDS011;1924;48.078;11.516;2023-03-05T15:09:54;23.80;;;0.80;;
3817;SDS011;1924;48.078;11.516;2023-03-05T15:12:21;23.80;;;0.80;;
3817;SDS011;1924;48.078;11.516;2023-03-05T15:14:48;23.90;;;0.80;;
3817;SDS011;1924;48.078;11.516;2023-03-05T15:17:16;23.70;;;0.80;;
3817;SDS011;1924;48.078;11.516;2023-03-05T15:19:46;23.70;;;0.70;;
3817;SDS011;1924;48.078;11.516;2023-03-05T15:22:15;23.80;;;0.70;;
3817;SDS011;1924;48.078;11.516;2023-03-05T15:24:42;23.90;;;0.77;;
3817;SDS011;1924;48.078;11.516;2023-03-05T15:27:09;23.80;;;0.73;;
3817;SDS011;1924;48.078;11.516;2023-03-05T15:29:36;23.80;;;0.73;;
3817;SDS011;1924;48.078;11.516;2023-03-05T15:32:03;23.60;;;0.70;;
3817;SDS011;1924;48.078;11.516;2023-03-05T15:34:30;23.77;;;0.70;;
3817;SDS011;1924;48.078;11.516;2023-03-05T15:36:57;23.70;;;0.77;;
3817;SDS011;1924;48.078;11.516;2023-03-05T15:42:01;23.80;;;0.80;;
3817;SDS011;1924;48.078;11.516;2023-03-05T15:44:28;23.77;;;0.70;;
3817;SDS011;1924;48.078;11.516;2023-03-05T15:46:55;23.70;;;0.80;;
3817;SDS011;1924;48.078;11.516;2023-03-05T15:49:22;23.70;;;0.77;;
3817;SDS011;1924;48.078;11.516;2023-03-05T15:51:52;23.80;;;0.80;;
3817;SDS011;1924;48.078;11.516;2023-03-05T15:54:19;23.77;;;0.80;;
3817;SDS011;1924;48.078;11.516;2023-03-05T15:56:46;23.80;;;0.70;;
3817;SDS011;1924;48.078;11.516;2023-03-05T15:59:14;23.80;;;0.80;;
3817;SDS011;1924;48.078;11.516;2023-03-05T16:01:41;23.80;;;0.80;;
3817;SDS011;1924;48.078;11.516;2023-03-05T16:04:12;23.60;;;0.80;;
3817;SDS011;1924;48.078;11.516;2023-03-05T16:06:41;23.70;;;0.70;;
3817;SDS011;1924;48.078;11.516;2023-03-05T16:09:08;23.70;;;0.80;;
3817;SDS011;1924;48.078;11.516;2023-03-05T16:11:36;23.70;;;0.73;;
3817;SDS011;1924;48.078;11.516;2023-03-05T16:14:06;23.60;;;0.70;;
3817;SDS011;1924;48.078;11.516;2023-03-05T16:16:35;23.60;;;0.70;;
3817;SDS011;1924;48.078;11.516;2023-03-05T16:19:06;23.73;;;0.70;;
3817;SDS011;1924;48.078;11.516;2023-03-05T16:21:35;23.77;;;0.70;;
3817;SDS011;1924;48.078;11.516;2023-03-05T16:24:02;23.80;;;0.70;;
3817;SDS011;1924;48.078;11.516;2023-03-05T16:26:29;23.70;;;0.70;;
3817;SDS011;1924;48.078;11.516;2023-03-05T16:28:56;23.80;;;0.70;;
3817;SDS011;1924;48.078;11.516;2023-03-05T16:31:23;23.77;;;0.80;;
3817;SDS011;1924;48.078;11.516;2023-03-05T16:36:22;23.77;;;0.70;;
3817;SDS011;1924;48.078;11.516;2023-03-05T16:38:52;23.60;;;0.80;;
3817;SDS011;1924;48.078;11.516;2023-03-05T16:41:24;23.70;;;0.70;;
3817;SDS011;1924;48.078;11.516;2023-03-05T16:43:52;23.70;;;0.80;;
3817;SDS011;1924;48.078;11.516;2023-03-05T16:46:21;23.67;;;0.80;;
3817;SDS011;1924;48.078;11.516;2023-03-05T16:48:49;23.70;;;0.80;;
3817;SDS011;1924;48.078;11.516;2023-03-05T16:51:16;23.63;;;0.70;;
3817;SDS011;1924;48.078;11.516;2023-03-05T16:53:44;23.77;;;0.70;;
3817;SDS011;1924;48.078;11.516;2023-03-05T16:56:11;23.80;;;0.77;;
3817;SDS011;1924;48.078;11.516;2023-03-05T16:58:39;23.60;;;0.70;;
3817;SDS011;1924;48.078;11.516;2023-03-05T17:01:20;23.50;;;0.77;;
3817;SDS011;1924;48.078;11.516;2023-03-05T17:03:47;23.67;;;0.70;;
3817;SDS011;1924;48.078;11.516;2023-03-05T17:06:15;23.70;;;0.70;;
3817;SDS011;1924;48.078;11.516;2023-03-05T17:08:44;23.60;;;0.70;;
3817;SDS011;1924;48.078;11.516;2023-03-05T17:11:12;23.70;;;0.70;;
3817;SDS011;1924;48.078;11.516;2023-03-05T17:16:26;23.67;;;0.73;;
3817;SDS011;1924;48.078;11.516;2023-03-05T17:18:53;23.60;;;0.70;;
3817;SDS011;1924;48.078;11.516;2023-03-05T17:21:20;23.57;;;0.70;;
3817;SDS011;1924;48.078;11.516;2023-03-05T17:26:28;23.70;;;0.70;;
3817;SDS011;1924;48.078;11.516;2023-03-05T17:28:56;23.60;;;0.70;;
3817;SDS011;1924;48.078;11.516;2023-03-05T17:31:23;23.50;;;0.70;;
3817;SDS011;1924;48.078;11.516;2023-03-05T17:33:52;23.50;;;0.73;;
3817;SDS011;1924;48.078;11.516;2023-03-05T17:36:20;23.57;;;0.70;;
3817;SDS011;1924;48.078;11.516;2023-03-05T17:38:47;23.60;;;0.70;;
3817;SDS011;1924;48.078;11.516;2023-03-05T17:41:15;23.60;;;0.70;;
3817;SDS011;1924;48.078;11.516;2023-03-05T17:43:44;23.50;;;0.70;;
3817;SDS011;1924;48.078;11.516;2023-03-05T17:46:11;23.53;;;0.70;;
3817;SDS011;1924;48.078;11.516;2023-03-05T17:48:39;23.43;;;0.70;;
3817;SDS011;1924;48.078;11.516;2023-03-05T17:51:06;23.50;;;0.80;;
3817;SDS011;1924;48.078;11.516;2023-03-05T17:53:35;23.40;;;0.70;;
3817;SDS011;1924;48.078;11.516;2023-03-05T17:56:04;23.50;;;0.70;;
3817;SDS011;1924;48.078;11.516;2023-03-05T17:58:32;23.60;;;0.70;;
3817;SDS011;1924;48.078;11.516;2023-03-05T18:01:00;23.57;;;0.70;;
3817;SDS011;1924;48.078;11.516;2023-03-05T18:03:27;23.60;;;0.70;;
3817;SDS011;1924;48.078;11.516;2023-03-05T18:05:54;23.60;;;0.70;;
3817;SDS011;1924;48.078;11.516;2023-03-05T18:08:20;23.70;;;0.70;;
3817;SDS011;1924;48.078;11.516;2023-03-05T18:10:47;23.53;;;0.80;;
3817;SDS011;1924;48.078;11.516;2023-03-05T18:13:14;23.40;;;0.70;;
3817;SDS011;1924;48.078;11.516;2023-03-05T18:15:41;23.40;;;0.70;;
3817;SDS011;1924;48.078;11.516;2023-03-05T18:18:13;23.60;;;0.70;;
3817;SDS011;1924;48.078;11.516;2023-03-05T18:20:40;23.50;;;0.70;;
3817;SDS011;1924;48.078;11.516;2023-03-05T18:23:07;23.60;;;0.70;;
3817;SDS011;1924;48.078;11.516;2023-03-05T18:25:34;23.60;;;0.77;;
3817;SDS011;1924;48.078;11.516;2023-03-05T18:28:02;23.50;;;0.73;;
3817;SDS011;1924;48.078;11.516;2023-03-05T18:30:30;23.57;;;0.70;;
3817;SDS011;1924;48.078;11.516;2023-03-05T18:32:57;23.50;;;0.70;;
3817;SDS011;1924;48.078;11.516;2023-03-05T18:35:26;23.40;;;0.70;;
3817;SDS011;1924;48.078;11.516;2023-03-05T18:40:29;23.40;;;0.70;;
3817;SDS011;1924;48.078;11.516;2023-03-05T18:43:00;23.57;;;0.70;;
3817;SDS011;1924;48.078;11.516;2023-03-05T18:48:04;23.57;;;0.70;;
3817;SDS011;1924;48.078;11.516;2023-03-05T18:50:32;23.30;;;0.70;;
3817;SDS011;1924;48.078;11.516;2023-03-05T18:52:59;23.40;;;0.70;;
3817;SDS011;1924;48.078;11.516;2023-03-05T18:55:27;23.40;;;0.70;;
3817;SDS011;1924;48.078;11.516;2023-03-05T18:57:55;23.50;;;0.70;;
3817;SDS011;1924;48.078;11.516;2023-03-05T19:00:23;23.50;;;0.70;;
3817;SDS011;1924;48.078;11.516;2023-03-05T19:05:26;23.50;;;0.80;;
3817;SDS011;1924;48.078;11.516;2023-03-05T19:10:30;23.40;;;0.70;;
3817;SDS011;1924;48.078;11.516;2023-03-05T19:12:57;23.40;;;0.80;;
3817;SDS011;1924;48.078;11.516;2023-03-05T19:18:05;23.37;;;0.80;;
3817;SDS011;1924;48.078;11.516;2023-03-05T19:20:32;23.30;;;0.70;;
3817;SDS011;1924;48.078;11.516;2023-03-05T19:23:02;23.40;;;0.73;;
3817;SDS011;1924;48.078;11.516;2023-03-05T19:33:18;23.40;;;0.70;;
3817;SDS011;1924;48.078;11.516;2023-03-05T19:35:45;23.40;;;0.70;;
3817;SDS011;1924;48.078;11.516;2023-03-05T19:38:13;23.47;;;0.70;;
3817;SDS011;1924;48.078;11.516;2023-03-05T19:46:00;23.50;;;0.70;;
3817;SDS011;1924;48.078;11.516;2023-03-05T19:48:29;23.20;;;0.70;;
3817;SDS011;1924;48.078;11.516;2023-03-05T19:58:40;23.30;;;0.70;;
3817;SDS011;1924;48.078;11.516;2023-03-05T20:03:46;23.40;;;0.70;;
3817;SDS011;1924;48.078;11.516;2023-03-05T20:06:16;23.33;;;0.70;;
3817;SDS011;1924;48.078;11.516;2023-03-05T20:11:19;23.37;;;0.70;;
3817;SDS011;1924;48.078;11.516;2023-03-05T20:21:20;23.40;;;0.80;;
3817;SDS011;1924;48.078;11.516;2023-03-05T20:31:33;23.47;;;0.70;;
3817;SDS011;1924;48.078;11.516;2023-03-05T20:34:01;23.37;;;0.70;;
3817;SDS011;1924;48.078;11.516;2023-03-05T20:36:30;23.43;;;0.80;;
3817;SDS011;1924;48.078;11.516;2023-03-05T20:38:58;23.30;;;0.70;;
3817;SDS011;1924;48.078;11.516;2023-03-05T20:41:26;23.37;;;0.70;;
3817;SDS011;1924;48.078;11.516;2023-03-05T20:43:53;23.40;;;0.70;;
3817;SDS011;1924;48.078;11.516;2023-03-05T20:48:56;23.40;;;0.70;;
3817;SDS011;1924;48.078;11.516;2023-03-05T20:51:25;23.40;;;0.70;;
3817;SDS011;1924;48.078;11.516;2023-03-05T20:53:55;23.40;;;0.70;;
3817;SDS011;1924;48.078;11.516;2023-03-05T20:56:26;23.37;;;0.70;;
3817;SDS011;1924;48.078;11.516;2023-03-05T20:58:56;23.40;;;0.70;;
3817;SDS011;1924;48.078;11.516;2023-03-05T21:01:24;23.37;;;0.80;;
3817;SDS011;1924;48.078;11.516;2023-03-05T21:03:51;23.20;;;0.70;;
3817;SDS011;1924;48.078;11.516;2023-03-05T21:06:20;23.37;;;0.70;;
3817;SDS011;1924;48.078;11.516;2023-03-05T21:08:48;23.20;;;0.70;;
3817;SDS011;1924;48.078;11.516;2023-03-05T21:11:16;23.40;;;0.70;;
3817;SDS011;1924;48.078;11.516;2023-03-05T21:13:43;23.40;;;0.70;;
3817;SDS011;1924;48.078;11.516;2023-03-05T21:16:10;23.37;;;0.70;;
3817;SDS011;1924;48.078;11.516;2023-03-05T21:18:40;23.37;;;0.70;;
3817;SDS011;1924;48.078;11.516;2023-03-05T21:21:07;23.30;;;0.70;;
3817;SDS011;1924;48.078;11.516;2023-03-05T21:23:34;23.20;;;0.73;;
3817;SDS011;1924;48.078;11.516;2023-03-05T21:26:01;23.40;;;0.80;;
3817;SDS011;1924;48.078;11.516;2023-03-05T21:28:30;23.20;;;0.70;;
3817;SDS011;1924;48.078;11.516;2023-03-05T21:30:57;23.20;;;0.70;;
3817;SDS011;1924;48.078;11.516;2023-03-05T21:33:30;23.20;;;0.70;;
3817;SDS011;1924;48.078;11.516;2023-03-05T21:35:56;23.37;;;0.80;;
3817;SDS011;1924;48.078;11.516;2023-03-05T21:38:23;23.30;;;0.77;;
3817;SDS011;1924;48.078;11.516;2023-03-05T21:40:53;23.10;;;0.70;;
3817;SDS011;1924;48.078;11.516;2023-03-05T21:43:22;23.10;;;0.70;;
3817;SDS011;1924;48.078;11.516;2023-03-05T21:45:52;23.13;;;0.70;;
3817;SDS011;1924;48.078;11.516;2023-03-05T21:48:21;23.27;;;0.70;;
3817;SDS011;1924;48.078;11.516;2023-03-05T21:50:48;23.00;;;0.70;;
3817;SDS011;1924;48.078;11.516;2023-03-05T21:53:17;23.27;;;0.70;;
3817;SDS011;1924;48.078;11.516;2023-03-05T21:55:45;23.10;;;0.70;;
3817;SDS011;1924;48.078;11.516;2023-03-05T21:58:27;23.17;;;0.77;;
3817;SDS011;1924;48.078;11.516;2023-03-05T22:00:55;23.20;;;0.80;;
3817;SDS011;1924;48.078;11.516;2023-03-05T22:03:23;23.27;;;0.70;;
3817;SDS011;1924;48.078;11.516;2023-03-05T22:05:49;23.17;;;0.73;;
3817;SDS011;1924;48.078;11.516;2023-03-05T22:08:16;23.17;;;0.70;;
3817;SDS011;1924;48.078;11.516;2023-03-05T22:10:43;23.27;;;0.70;;
3817;SDS011;1924;48.078;11.516;2023-03-05T22:13:10;23.17;;;0.80;;
3817;SDS011;1924;48.078;11.516;2023-03-05T22:15:40;23.00;;;0.73;;
3817;SDS011;1924;48.078;11.516;2023-03-05T22:18:12;23.10;;;0.70;;
3817;SDS011;1924;48.078;11.516;2023-03-05T22:20:40;23.00;;;0.70;;
3817;SDS011;1924;48.078;11.516;2023-03-05T22:23:07;23.10;;;0.70;;
3817;SDS011;1924;48.078;11.516;2023-03-05T22:25:34;23.17;;;0.70;;
3817;SDS011;1924;48.078;11.516;2023-03-05T22:28:02;23.00;;;0.70;;
3817;SDS011;1924;48.078;11.516;2023-03-05T22:30:29;23.20;;;0.80;;
3817;SDS011;1924;48.078;11.516;2023-03-05T22:32:56;23.10;;;0.70;;
3817;SDS011;1924;48.078;11.516;2023-03-05T22:35:24;23.03;;;0.70;;
3817;SDS011;1924;48.078;11.516;2023-03-05T22:37:51;23.07;;;0.70;;
3817;SDS011;1924;48.078;11.516;2023-03-05T22:40:18;23.10;;;0.70;;
3817;SDS011;1924;48.078;11.516;2023-03-05T22:42:46;22.80;;;0.70;;
3817;SDS011;1924;48.078;11.516;2023-03-05T22:45:14;23.00;;;0.80;;
3817;SDS011;1924;48.078;11.516;2023-03-05T22:47:42;23.00;;;0.70;;
3817;SDS011;1924;48.078;11.516;2023-03-05T22:50:11;22.90;;;0.70;;
3817;SDS011;1924;48.078;11.516;2023-03-05T22:52:39;23.07;;;0.70;;
3817;SDS011;1924;48.078;11.516;2023-03-05T22:55:06;22.90;;;0.70;;
3817;SDS011;1924;48.078;11.516;2023-03-05T22:57:35;23.10;;;0.80;;
3817;SDS011;1924;48.078;11.516;2023-03-05T23:00:02;23.10;;;0.70;;
3817;SDS011;1924;48.078;11.516;2023-03-05T23:04:58;23.00;;;0.70;;
3817;SDS011;1924;48.078;11.516;2023-03-05T23:07:28;23.07;;;0.70;;
3817;SDS011;1924;48.078;11.516;2023-03-05T23:09:58;23.10;;;0.77;;
3817;SDS011;1924;48.078;11.516;2023-03-05T23:12:26;23.10;;;0.70;;
3817;SDS011;1924;48.078;11.516;2023-03-05T23:14:54;23.00;;;0.70;;
3817;SDS011;1924;48.078;11.516;2023-03-05T23:17:23;22.90;;;0.70;;
3817;SDS011;1924;48.078;11.516;2023-03-05T23:19:50;23.03;;;0.70;;
3817;SDS011;1924;48.078;11.516;2023-03-05T23:22:16;22.90;;;0.70;;
3817;SDS011;1924;48.078;11.516;2023-03-05T23:24:43;23.00;;;0.70;;
3817;SDS011;1924;48.078;11.516;2023-03-05T23:27:12;22.97;;;0.73;;
3817;SDS011;1924;48.078;11.516;2023-03-05T23:29:40;22.87;;;0.70;;
3817;SDS011;1924;48.078;11.516;2023-03-05T23:32:22;23.00;;;0.70;;
3817;SDS011;1924;48.078;11.516;2023-03-05T23:34:49;22.90;;;0.80;;
3817;SDS011;1924;48.078;11.516;2023-03-05T23:37:16;23.03;;;0.70;;
3817;SDS011;1924;48.078;11.516;2023-03-05T23:39:43;23.03;;;0.70;;
3817;SDS011;1924;48.078;11.516;2023-03-05T23:42:11;22.97;;;0.70;;
3817;SDS011;1924;48.078;11.516;2023-03-05T23:44:38;22.90;;;0.70;;
3817;SDS011;1924;48.078;11.516;2023-03-05T23:47:04;23.00;;;0.70;;
3817;SDS011;1924;48.078;11.516;2023-03-05T23:49:31;22.97;;;0.70;;
3817;SDS011;1924;48.078;11.516;2023-03-05T23:51:58;22.97;;;0.70;;
3817;SDS011;1924;48.078;11.516;2023-03-05T23:54:25;23.07;;;0.70;;
3817;SDS011;1924;48.078;11.516;2023-03-05T23:56:52;22.90;;;0.70;;
3817;SDS011;1924;48.078;11.516;2023-03-05T23:59:20;23.00;;;0.70;;
